sensor_id;sensor_type;location;lat;lon;timestamp;P1;durP1;ratioP1;P2;durP2;ratioP2
56233;SDS011;42141;53.240;6.580;2023-04-01T00:01:39;5.88;;;4.93;;
56233;SDS011;42141;53.240;6.580;2023-04-01T00:04:05;6.60;;;5.28;;
56233;SDS011;42141;53.240;6.580;2023-04-01T00:06:31;9.23;;;5.47;;
56233;SDS011;42141;53.240;6.580;2023-04-01T00:08:56;8.00;;;4.68;;
56233;SDS011;42141;53.240;6.580;2023-04-01T00:11:22;10.32;;;5.32;;
56233;SDS011;42141;53.240;6.580;2023-04-01T00:13:48;8.20;;;4.70;;
56233;SDS011;42141;53.240;6.580;2023-04-01T00:16:14;7.63;;;4.82;;
56233;SDS011;42141;53.240;6.580;2023-04-01T00:18:40;7.13;;;5.00;;
56233;SDS011;42141;53.240;6.580;2023-04-01T00:21:06;6.75;;;4.95;;
56233;SDS011;42141;53.240;6.580;2023-04-01T00:23:32;6.95;;;5.10;;
56233;SDS011;42141;53.240;6.580;2023-04-01T00:25:59;8.15;;;6.00;;
56233;SDS011;42141;53.240;6.580;2023-04-01T00:28:26;6.70;;;4.65;;
56233;SDS011;42141;53.240;6.580;2023-04-01T00:30:52;8.38;;;5.15;;
56233;SDS011;42141;53.240;6.580;2023-04-01T00:33:17;7.78;;;4.75;;
56233;SDS011;42141;53.240;6.580;2023-04-01T00:35:43;7.32;;;5.15;;
56233;SDS011;42141;53.240;6.580;2023-04-01T00:38:10;13.07;;;6.18;;
56233;SDS011;42141;53.240;6.580;2023-04-01T00:40:40;8.88;;;4.70;;
56233;SDS011;42141;53.240;6.580;2023-04-01T00:43:18;6.60;;;4.90;;
56233;SDS011;42141;53.240;6.580;2023-04-01T00:45:45;8.05;;;5.13;;
56233;SDS011;42141;53.240;6.580;2023-04-01T00:50:56;10.23;;;4.88;;
56233;SDS011;42141;53.240;6.580;2023-04-01T00:53:25;6.13;;;4.65;;
56233;SDS011;42141;53.240;6.580;2023-04-01T00:58:35;8.93;;;5.20;;
56233;SDS011;42141;53.240;6.580;2023-04-01T01:01:03;7.75;;;4.88;;
56233;SDS011;42141;53.240;6.580;2023-04-01T01:03:30;9.27;;;5.65;;
56233;SDS011;42141;53.240;6.580;2023-04-01T01:09:10;5.75;;;4.80;;
56233;SDS011;42141;53.240;6.580;2023-04-01T01:12:15;6.68;;;5.18;;
56233;SDS011;42141;53.240;6.580;2023-04-01T01:14:57;6.95;;;5.40;;
56233;SDS011;42141;53.240;6.580;2023-04-01T01:26:40;10.27;;;5.63;;
56233;SDS011;42141;53.240;6.580;2023-04-01T01:29:35;9.00;;;5.85;;
56233;SDS011;42141;53.240;6.580;2023-04-01T01:32:25;8.98;;;6.00;;
56233;SDS011;42141;53.240;6.580;2023-04-01T01:35:52;7.82;;;5.78;;
56233;SDS011;42141;53.240;6.580;2023-04-01T01:38:21;7.15;;;6.03;;
56233;SDS011;42141;53.240;6.580;2023-04-01T01:40:51;8.93;;;6.15;;
56233;SDS011;42141;53.240;6.580;2023-04-01T01:43:25;10.82;;;6.57;;
56233;SDS011;42141;53.240;6.580;2023-04-01T01:45:55;10.23;;;6.20;;
56233;SDS011;42141;53.240;6.580;2023-04-01T01:48:24;10.00;;;6.47;;
56233;SDS011;42141;53.240;6.580;2023-04-01T01:50:52;7.70;;;5.72;;
56233;SDS011;42141;53.240;6.580;2023-04-01T01:53:19;7.47;;;6.10;;
56233;SDS011;42141;53.240;6.580;2023-04-01T01:55:45;10.30;;;6.38;;
56233;SDS011;42141;53.240;6.580;2023-04-01T01:58:17;10.13;;;5.95;;
56233;SDS011;42141;53.240;6.580;2023-04-01T02:01:06;7.75;;;6.82;;
56233;SDS011;42141;53.240;6.580;2023-04-01T02:03:37;9.02;;;6.28;;
56233;SDS011;42141;53.240;6.580;2023-04-01T02:06:09;9.07;;;6.50;;
56233;SDS011;42141;53.240;6.580;2023-04-01T02:08:42;9.07;;;6.80;;
56233;SDS011;42141;53.240;6.580;2023-04-01T02:11:30;8.27;;;6.55;;
56233;SDS011;42141;53.240;6.580;2023-04-01T02:16:37;10.32;;;6.22;;
56233;SDS011;42141;53.240;6.580;2023-04-01T02:19:08;6.57;;;5.90;;
56233;SDS011;42141;53.240;6.580;2023-04-01T02:21:35;8.15;;;6.68;;
56233;SDS011;42141;53.240;6.580;2023-04-01T02:24:04;9.13;;;6.97;;
56233;SDS011;42141;53.240;6.580;2023-04-01T02:26:33;10.45;;;7.70;;
56233;SDS011;42141;53.240;6.580;2023-04-01T02:28:59;14.15;;;7.63;;
56233;SDS011;42141;53.240;6.580;2023-04-01T02:31:27;9.20;;;8.27;;
56233;SDS011;42141;53.240;6.580;2023-04-01T02:33:54;9.90;;;7.50;;
56233;SDS011;42141;53.240;6.580;2023-04-01T02:36:20;8.05;;;7.03;;
56233;SDS011;42141;53.240;6.580;2023-04-01T02:38:46;9.77;;;7.65;;
56233;SDS011;42141;53.240;6.580;2023-04-01T02:41:15;9.52;;;7.13;;
56233;SDS011;42141;53.240;6.580;2023-04-01T02:43:40;9.40;;;7.32;;
56233;SDS011;42141;53.240;6.580;2023-04-01T02:46:06;13.57;;;6.78;;
56233;SDS011;42141;53.240;6.580;2023-04-01T02:48:32;11.48;;;6.60;;
56233;SDS011;42141;53.240;6.580;2023-04-01T02:50:57;9.90;;;7.43;;
56233;SDS011;42141;53.240;6.580;2023-04-01T02:53:23;13.48;;;7.55;;
56233;SDS011;42141;53.240;6.580;2023-04-01T02:55:49;13.43;;;8.10;;
56233;SDS011;42141;53.240;6.580;2023-04-01T02:58:16;11.25;;;8.07;;
56233;SDS011;42141;53.240;6.580;2023-04-01T03:00:43;10.90;;;8.23;;
56233;SDS011;42141;53.240;6.580;2023-04-01T03:03:09;12.25;;;9.05;;
56233;SDS011;42141;53.240;6.580;2023-04-01T03:05:34;14.27;;;8.45;;
56233;SDS011;42141;53.240;6.580;2023-04-01T03:08:01;11.75;;;8.27;;
56233;SDS011;42141;53.240;6.580;2023-04-01T03:10:27;13.85;;;10.18;;
56233;SDS011;42141;53.240;6.580;2023-04-01T03:12:53;15.38;;;9.50;;
56233;SDS011;42141;53.240;6.580;2023-04-01T03:15:19;14.23;;;9.68;;
56233;SDS011;42141;53.240;6.580;2023-04-01T03:17:45;13.23;;;10.13;;
56233;SDS011;42141;53.240;6.580;2023-04-01T03:20:12;13.27;;;9.52;;
56233;SDS011;42141;53.240;6.580;2023-04-01T03:22:38;11.60;;;9.98;;
56233;SDS011;42141;53.240;6.580;2023-04-01T03:25:04;17.63;;;10.82;;
56233;SDS011;42141;53.240;6.580;2023-04-01T03:27:30;16.42;;;10.68;;
56233;SDS011;42141;53.240;6.580;2023-04-01T03:29:56;12.18;;;10.18;;
56233;SDS011;42141;53.240;6.580;2023-04-01T03:32:22;14.80;;;10.27;;
56233;SDS011;42141;53.240;6.580;2023-04-01T03:34:47;15.25;;;10.27;;
56233;SDS011;42141;53.240;6.580;2023-04-01T03:37:13;11.70;;;9.68;;
56233;SDS011;42141;53.240;6.580;2023-04-01T03:39:39;14.60;;;10.63;;
56233;SDS011;42141;53.240;6.580;2023-04-01T03:42:05;18.95;;;10.43;;
56233;SDS011;42141;53.240;6.580;2023-04-01T03:44:32;15.13;;;11.23;;
56233;SDS011;42141;53.240;6.580;2023-04-01T03:46:58;13.25;;;10.70;;
56233;SDS011;42141;53.240;6.580;2023-04-01T03:49:25;13.00;;;10.73;;
56233;SDS011;42141;53.240;6.580;2023-04-01T03:51:51;12.95;;;10.32;;
56233;SDS011;42141;53.240;6.580;2023-04-01T03:54:17;20.15;;;11.45;;
56233;SDS011;42141;53.240;6.580;2023-04-01T03:56:45;15.77;;;10.65;;
56233;SDS011;42141;53.240;6.580;2023-04-01T03:59:11;14.18;;;10.63;;
56233;SDS011;42141;53.240;6.580;2023-04-01T04:01:37;14.25;;;10.70;;
56233;SDS011;42141;53.240;6.580;2023-04-01T04:04:03;12.93;;;10.57;;
56233;SDS011;42141;53.240;6.580;2023-04-01T04:06:29;12.35;;;10.13;;
56233;SDS011;42141;53.240;6.580;2023-04-01T04:08:55;12.48;;;10.38;;
56233;SDS011;42141;53.240;6.580;2023-04-01T04:11:22;13.68;;;10.55;;
56233;SDS011;42141;53.240;6.580;2023-04-01T04:13:47;14.48;;;11.40;;
56233;SDS011;42141;53.240;6.580;2023-04-01T04:16:14;14.02;;;10.88;;
56233;SDS011;42141;53.240;6.580;2023-04-01T04:18:41;13.50;;;9.52;;
56233;SDS011;42141;53.240;6.580;2023-04-01T04:21:06;20.52;;;11.15;;
56233;SDS011;42141;53.240;6.580;2023-04-01T04:23:36;12.82;;;9.82;;
56233;SDS011;42141;53.240;6.580;2023-04-01T04:26:06;11.35;;;10.02;;
56233;SDS011;42141;53.240;6.580;2023-04-01T04:28:33;13.32;;;10.13;;
56233;SDS011;42141;53.240;6.580;2023-04-01T04:30:59;14.05;;;11.05;;
56233;SDS011;42141;53.240;6.580;2023-04-01T04:33:25;18.23;;;10.90;;
56233;SDS011;42141;53.240;6.580;2023-04-01T04:35:51;14.55;;;11.00;;
56233;SDS011;42141;53.240;6.580;2023-04-01T04:38:19;15.77;;;10.85;;
56233;SDS011;42141;53.240;6.580;2023-04-01T04:40:45;13.90;;;11.35;;
56233;SDS011;42141;53.240;6.580;2023-04-01T04:43:11;15.18;;;10.95;;
56233;SDS011;42141;53.240;6.580;2023-04-01T04:45:38;15.88;;;11.13;;
56233;SDS011;42141;53.240;6.580;2023-04-01T04:48:05;15.73;;;11.60;;
56233;SDS011;42141;53.240;6.580;2023-04-01T04:50:35;15.15;;;11.40;;
56233;SDS011;42141;53.240;6.580;2023-04-01T04:53:01;14.95;;;11.98;;
56233;SDS011;42141;53.240;6.580;2023-04-01T04:55:27;15.98;;;11.85;;
56233;SDS011;42141;53.240;6.580;2023-04-01T04:57:52;13.43;;;11.30;;
56233;SDS011;42141;53.240;6.580;2023-04-01T05:00:18;13.93;;;11.55;;
56233;SDS011;42141;53.240;6.580;2023-04-01T05:02:44;19.00;;;11.85;;
56233;SDS011;42141;53.240;6.580;2023-04-01T05:05:10;18.33;;;12.25;;
56233;SDS011;42141;53.240;6.580;2023-04-01T05:07:36;19.17;;;13.65;;
56233;SDS011;42141;53.240;6.580;2023-04-01T05:10:01;21.25;;;13.07;;
56233;SDS011;42141;53.240;6.580;2023-04-01T05:12:27;18.10;;;12.40;;
56233;SDS011;42141;53.240;6.580;2023-04-01T05:14:53;19.52;;;13.52;;
56233;SDS011;42141;53.240;6.580;2023-04-01T05:17:19;21.33;;;14.15;;
56233;SDS011;42141;53.240;6.580;2023-04-01T05:19:44;17.30;;;13.65;;
56233;SDS011;42141;53.240;6.580;2023-04-01T05:22:10;18.13;;;13.07;;
56233;SDS011;42141;53.240;6.580;2023-04-01T05:24:36;18.35;;;14.20;;
56233;SDS011;42141;53.240;6.580;2023-04-01T05:27:01;17.52;;;14.13;;
56233;SDS011;42141;53.240;6.580;2023-04-01T05:29:27;17.00;;;13.27;;
56233;SDS011;42141;53.240;6.580;2023-04-01T05:31:53;22.02;;;13.75;;
56233;SDS011;42141;53.240;6.580;2023-04-01T05:34:18;19.08;;;13.40;;
56233;SDS011;42141;53.240;6.580;2023-04-01T05:36:44;17.25;;;13.27;;
56233;SDS011;42141;53.240;6.580;2023-04-01T05:39:10;15.93;;;12.60;;
56233;SDS011;42141;53.240;6.580;2023-04-01T05:41:36;17.88;;;13.15;;
56233;SDS011;42141;53.240;6.580;2023-04-01T05:44:03;16.67;;;13.15;;
56233;SDS011;42141;53.240;6.580;2023-04-01T05:46:29;14.45;;;11.63;;
56233;SDS011;42141;53.240;6.580;2023-04-01T05:48:55;14.98;;;12.57;;
56233;SDS011;42141;53.240;6.580;2023-04-01T05:51:21;13.63;;;11.52;;
56233;SDS011;42141;53.240;6.580;2023-04-01T05:53:47;15.32;;;11.23;;
56233;SDS011;42141;53.240;6.580;2023-04-01T05:56:13;17.42;;;11.65;;
56233;SDS011;42141;53.240;6.580;2023-04-01T05:58:40;18.33;;;11.48;;
56233;SDS011;42141;53.240;6.580;2023-04-01T06:01:06;15.32;;;10.93;;
56233;SDS011;42141;53.240;6.580;2023-04-01T06:03:34;14.88;;;10.07;;
56233;SDS011;42141;53.240;6.580;2023-04-01T06:05:59;13.85;;;11.15;;
56233;SDS011;42141;53.240;6.580;2023-04-01T06:08:26;19.65;;;14.55;;
56233;SDS011;42141;53.240;6.580;2023-04-01T06:11:01;17.17;;;13.35;;
56233;SDS011;42141;53.240;6.580;2023-04-01T06:19:00;14.50;;;11.13;;
56233;SDS011;42141;53.240;6.580;2023-04-01T06:22:13;14.10;;;11.55;;
56233;SDS011;42141;53.240;6.580;2023-04-01T06:35:53;17.40;;;13.88;;
56233;SDS011;42141;53.240;6.580;2023-04-01T06:43:38;19.05;;;14.32;;
56233;SDS011;42141;53.240;6.580;2023-04-01T06:47:27;17.55;;;14.80;;
56233;SDS011;42141;53.240;6.580;2023-04-01T06:49:29;19.63;;;15.02;;
56233;SDS011;42141;53.240;6.580;2023-04-01T06:52:08;19.60;;;15.23;;
56233;SDS011;42141;53.240;6.580;2023-04-01T06:55:21;18.95;;;15.48;;
56233;SDS011;42141;53.240;6.580;2023-04-01T06:57:54;21.02;;;16.88;;
56233;SDS011;42141;53.240;6.580;2023-04-01T07:02:58;21.17;;;16.45;;
56233;SDS011;42141;53.240;6.580;2023-04-01T07:05:32;21.23;;;16.48;;
56233;SDS011;42141;53.240;6.580;2023-04-01T07:07:59;19.83;;;15.32;;
56233;SDS011;42141;53.240;6.580;2023-04-01T07:13:24;18.92;;;15.15;;
56233;SDS011;42141;53.240;6.580;2023-04-01T07:15:58;30.25;;;17.02;;
56233;SDS011;42141;53.240;6.580;2023-04-01T07:18:41;19.10;;;15.90;;
56233;SDS011;42141;53.240;6.580;2023-04-01T07:21:33;20.38;;;16.90;;
56233;SDS011;42141;53.240;6.580;2023-04-01T07:24:22;23.60;;;16.33;;
56233;SDS011;42141;53.240;6.580;2023-04-01T07:26:55;20.30;;;16.00;;
56233;SDS011;42141;53.240;6.580;2023-04-01T07:29:22;24.27;;;17.45;;
56233;SDS011;42141;53.240;6.580;2023-04-01T07:34:25;22.65;;;16.70;;
56233;SDS011;42141;53.240;6.580;2023-04-01T07:36:54;18.35;;;16.05;;
56233;SDS011;42141;53.240;6.580;2023-04-01T07:45:01;21.42;;;15.32;;
56233;SDS011;42141;53.240;6.580;2023-04-01T07:52:44;18.95;;;14.30;;
56233;SDS011;42141;53.240;6.580;2023-04-01T07:55:32;17.67;;;14.05;;
56233;SDS011;42141;53.240;6.580;2023-04-01T08:03:31;14.63;;;12.45;;
56233;SDS011;42141;53.240;6.580;2023-04-01T08:06:03;15.13;;;13.10;;
56233;SDS011;42141;53.240;6.580;2023-04-01T08:11:21;14.75;;;11.63;;
56233;SDS011;42141;53.240;6.580;2023-04-01T08:23:16;14.63;;;12.43;;
56233;SDS011;42141;53.240;6.580;2023-04-01T08:28:44;15.55;;;12.02;;
56233;SDS011;42141;53.240;6.580;2023-04-01T08:31:25;16.88;;;12.32;;
56233;SDS011;42141;53.240;6.580;2023-04-01T08:33:57;13.68;;;12.18;;
56233;SDS011;42141;53.240;6.580;2023-04-01T08:36:29;16.60;;;11.75;;
56233;SDS011;42141;53.240;6.580;2023-04-01T09:05:35;5.18;;;3.60;;
56233;SDS011;42141;53.240;6.580;2023-04-01T09:08:26;6.75;;;4.15;;
56233;SDS011;42141;53.240;6.580;2023-04-01T09:19:23;3.30;;;2.25;;
56233;SDS011;42141;53.240;6.580;2023-04-01T09:24:41;3.17;;;2.08;;
56233;SDS011;42141;53.240;6.580;2023-04-01T09:40:57;4.20;;;1.80;;
56233;SDS011;42141;53.240;6.580;2023-04-01T09:48:59;3.03;;;1.48;;
56233;SDS011;42141;53.240;6.580;2023-04-01T09:51:49;6.82;;;4.00;;
56233;SDS011;42141;53.240;6.580;2023-04-01T10:07:05;3.05;;;1.45;;
56233;SDS011;42141;53.240;6.580;2023-04-01T10:09:26;3.63;;;1.40;;
56233;SDS011;42141;53.240;6.580;2023-04-01T10:23:51;2.90;;;1.60;;
56233;SDS011;42141;53.240;6.580;2023-04-01T10:35:14;3.00;;;1.30;;
56233;SDS011;42141;53.240;6.580;2023-04-01T10:38:01;2.85;;;1.02;;
56233;SDS011;42141;53.240;6.580;2023-04-01T10:40:57;1.60;;;0.80;;
56233;SDS011;42141;53.240;6.580;2023-04-01T10:49:57;4.97;;;1.45;;
56233;SDS011;42141;53.240;6.580;2023-04-01T10:52:44;2.33;;;1.63;;
56233;SDS011;42141;53.240;6.580;2023-04-01T11:00:49;2.58;;;1.30;;
56233;SDS011;42141;53.240;6.580;2023-04-01T11:20:56;2.92;;;1.75;;
56233;SDS011;42141;53.240;6.580;2023-04-01T11:31:34;4.00;;;1.42;;
56233;SDS011;42141;53.240;6.580;2023-04-01T11:42:26;2.08;;;1.23;;
56233;SDS011;42141;53.240;6.580;2023-04-01T11:50:27;3.22;;;1.50;;
56233;SDS011;42141;53.240;6.580;2023-04-01T11:53:14;2.67;;;1.40;;
56233;SDS011;42141;53.240;6.580;2023-04-01T11:55:58;2.05;;;1.00;;
56233;SDS011;42141;53.240;6.580;2023-04-01T12:01:44;2.47;;;1.17;;
56233;SDS011;42141;53.240;6.580;2023-04-01T12:07:38;2.97;;;1.02;;
56233;SDS011;42141;53.240;6.580;2023-04-01T12:10:17;8.60;;;1.10;;
56233;SDS011;42141;53.240;6.580;2023-04-01T12:13:07;2.20;;;1.10;;
56233;SDS011;42141;53.240;6.580;2023-04-01T12:18:53;2.38;;;0.80;;
56233;SDS011;42141;53.240;6.580;2023-04-01T12:21:38;1.42;;;0.80;;
56233;SDS011;42141;53.240;6.580;2023-04-01T12:24:28;1.00;;;0.80;;
56233;SDS011;42141;53.240;6.580;2023-04-01T12:35:26;2.20;;;0.68;;
56233;SDS011;42141;53.240;6.580;2023-04-01T12:38:23;1.45;;;1.05;;
56233;SDS011;42141;53.240;6.580;2023-04-01T12:46:31;1.77;;;0.82;;
56233;SDS011;42141;53.240;6.580;2023-04-01T12:58:10;2.50;;;0.98;;
56233;SDS011;42141;53.240;6.580;2023-04-01T13:12:02;3.28;;;0.95;;
56233;SDS011;42141;53.240;6.580;2023-04-01T13:17:22;1.92;;;0.80;;
56233;SDS011;42141;53.240;6.580;2023-04-01T13:20:14;1.30;;;0.63;;
56233;SDS011;42141;53.240;6.580;2023-04-01T13:28:12;3.55;;;0.70;;
56233;SDS011;42141;53.240;6.580;2023-04-01T13:41:22;1.63;;;0.73;;
56233;SDS011;42141;53.240;6.580;2023-04-01T13:55:47;2.33;;;0.70;;
56233;SDS011;42141;53.240;6.580;2023-04-01T14:12:04;2.45;;;0.52;;
56233;SDS011;42141;53.240;6.580;2023-04-01T14:17:24;3.08;;;0.47;;
56233;SDS011;42141;53.240;6.580;2023-04-01T14:37:47;0.75;;;0.60;;
56233;SDS011;42141;53.240;6.580;2023-04-01T14:40:21;2.67;;;0.63;;
56233;SDS011;42141;53.240;6.580;2023-04-01T14:45:27;0.63;;;0.60;;
56233;SDS011;42141;53.240;6.580;2023-04-01T14:50:42;1.67;;;0.77;;
56233;SDS011;42141;53.240;6.580;2023-04-01T14:55:53;2.53;;;0.82;;
56233;SDS011;42141;53.240;6.580;2023-04-01T14:58:24;2.08;;;0.90;;
56233;SDS011;42141;53.240;6.580;2023-04-01T15:01:25;3.45;;;1.50;;
56233;SDS011;42141;53.240;6.580;2023-04-01T15:31:34;5.78;;;2.05;;
56233;SDS011;42141;53.240;6.580;2023-04-01T15:36:51;5.55;;;1.55;;
56233;SDS011;42141;53.240;6.580;2023-04-01T15:42:13;3.83;;;1.90;;
56233;SDS011;42141;53.240;6.580;2023-04-01T15:45:07;3.97;;;2.05;;
56233;SDS011;42141;53.240;6.580;2023-04-01T15:50:39;5.95;;;2.03;;
56233;SDS011;42141;53.240;6.580;2023-04-01T15:56:19;7.72;;;2.70;;
56233;SDS011;42141;53.240;6.580;2023-04-01T16:04:28;5.03;;;2.88;;
56233;SDS011;42141;53.240;6.580;2023-04-01T16:10:23;8.77;;;2.95;;
56233;SDS011;42141;53.240;6.580;2023-04-01T16:27:03;6.97;;;3.72;;
56233;SDS011;42141;53.240;6.580;2023-04-01T16:29:49;7.00;;;2.88;;
56233;SDS011;42141;53.240;6.580;2023-04-01T16:40:16;6.97;;;2.95;;
56233;SDS011;42141;53.240;6.580;2023-04-01T16:46:14;6.97;;;3.42;;
56233;SDS011;42141;53.240;6.580;2023-04-01T16:49:01;6.22;;;3.05;;
56233;SDS011;42141;53.240;6.580;2023-04-01T16:59:47;6.13;;;3.40;;
56233;SDS011;42141;53.240;6.580;2023-04-01T17:02:43;13.43;;;3.42;;
56233;SDS011;42141;53.240;6.580;2023-04-01T17:08:17;8.02;;;3.25;;
56233;SDS011;42141;53.240;6.580;2023-04-01T17:19:32;9.73;;;3.55;;
56233;SDS011;42141;53.240;6.580;2023-04-01T17:22:04;5.97;;;3.13;;
56233;SDS011;42141;53.240;6.580;2023-04-01T17:30:19;7.57;;;3.40;;
56233;SDS011;42141;53.240;6.580;2023-04-01T17:41:04;7.03;;;3.63;;
56233;SDS011;42141;53.240;6.580;2023-04-01T17:43:58;8.77;;;3.95;;
56233;SDS011;42141;53.240;6.580;2023-04-01T17:49:23;11.52;;;3.78;;
56233;SDS011;42141;53.240;6.580;2023-04-01T17:52:12;7.00;;;3.42;;
56233;SDS011;42141;53.240;6.580;2023-04-01T18:02:56;9.27;;;3.97;;
56233;SDS011;42141;53.240;6.580;2023-04-01T18:08:35;13.60;;;3.20;;
56233;SDS011;42141;53.240;6.580;2023-04-01T18:17:01;5.75;;;3.00;;
56233;SDS011;42141;53.240;6.580;2023-04-01T18:22:28;10.05;;;4.20;;
56233;SDS011;42141;53.240;6.580;2023-04-01T18:25:21;9.52;;;3.13;;
56233;SDS011;42141;53.240;6.580;2023-04-01T18:28:11;11.45;;;3.63;;
56233;SDS011;42141;53.240;6.580;2023-04-01T18:36:36;9.65;;;3.95;;
56233;SDS011;42141;53.240;6.580;2023-04-01T18:39:35;10.27;;;5.45;;
56233;SDS011;42141;53.240;6.580;2023-04-01T18:50:51;11.43;;;4.97;;
56233;SDS011;42141;53.240;6.580;2023-04-01T18:56:27;9.57;;;3.75;;
56233;SDS011;42141;53.240;6.580;2023-04-01T19:07:51;11.43;;;3.58;;
56233;SDS011;42141;53.240;6.580;2023-04-01T19:10:37;10.93;;;3.78;;
56233;SDS011;42141;53.240;6.580;2023-04-01T19:13:30;12.65;;;3.65;;
56233;SDS011;42141;53.240;6.580;2023-04-01T19:21:22;8.65;;;3.70;;
56233;SDS011;42141;53.240;6.580;2023-04-01T19:26:45;12.18;;;4.50;;
56233;SDS011;42141;53.240;6.580;2023-04-01T19:38:32;14.10;;;4.13;;
56233;SDS011;42141;53.240;6.580;2023-04-01T19:46:48;12.73;;;3.60;;
56233;SDS011;42141;53.240;6.580;2023-04-01T19:52:18;8.55;;;3.28;;
56233;SDS011;42141;53.240;6.580;2023-04-01T19:54:57;10.05;;;3.72;;
56233;SDS011;42141;53.240;6.580;2023-04-01T19:57:51;5.75;;;3.35;;
56233;SDS011;42141;53.240;6.580;2023-04-01T20:00:41;10.75;;;4.63;;
56233;SDS011;42141;53.240;6.580;2023-04-01T20:11:30;10.65;;;3.50;;
56233;SDS011;42141;53.240;6.580;2023-04-01T20:14:06;8.57;;;3.10;;
56233;SDS011;42141;53.240;6.580;2023-04-01T20:16:55;10.18;;;3.38;;
56233;SDS011;42141;53.240;6.580;2023-04-01T20:22:25;10.63;;;3.38;;
56233;SDS011;42141;53.240;6.580;2023-04-01T20:24:54;7.15;;;3.25;;
56233;SDS011;42141;53.240;6.580;2023-04-01T20:27:27;6.85;;;2.85;;
56233;SDS011;42141;53.240;6.580;2023-04-01T20:40:50;13.63;;;3.60;;
56233;SDS011;42141;53.240;6.580;2023-04-01T20:46:22;10.13;;;2.92;;
56233;SDS011;42141;53.240;6.580;2023-04-01T20:54:39;4.97;;;2.80;;
56233;SDS011;42141;53.240;6.580;2023-04-01T20:57:19;7.70;;;3.35;;
56233;SDS011;42141;53.240;6.580;2023-04-01T21:02:50;12.02;;;3.10;;
56233;SDS011;42141;53.240;6.580;2023-04-01T21:05:51;9.40;;;3.65;;
56233;SDS011;42141;53.240;6.580;2023-04-01T21:11:18;8.18;;;2.85;;
56233;SDS011;42141;53.240;6.580;2023-04-01T21:36:03;5.60;;;2.53;;
56233;SDS011;42141;53.240;6.580;2023-04-01T21:41:33;5.50;;;2.22;;
56233;SDS011;42141;53.240;6.580;2023-04-01T21:47:05;4.40;;;2.47;;
56233;SDS011;42141;53.240;6.580;2023-04-01T22:06:52;7.68;;;3.88;;
56233;SDS011;42141;53.240;6.580;2023-04-01T22:09:29;9.50;;;3.25;;
56233;SDS011;42141;53.240;6.580;2023-04-01T22:12:15;9.80;;;2.97;;
56233;SDS011;42141;53.240;6.580;2023-04-01T22:15:13;6.90;;;3.25;;
56233;SDS011;42141;53.240;6.580;2023-04-01T22:17:48;5.88;;;2.60;;
56233;SDS011;42141;53.240;6.580;2023-04-01T22:23:30;6.15;;;2.70;;
56233;SDS011;42141;53.240;6.580;2023-04-01T22:26:31;5.95;;;2.35;;
56233;SDS011;42141;53.240;6.580;2023-04-01T22:29:10;7.78;;;2.50;;
56233;SDS011;42141;53.240;6.580;2023-04-01T22:32:00;6.20;;;1.80;;
56233;SDS011;42141;53.240;6.580;2023-04-01T22:37:30;3.97;;;1.90;;
56233;SDS011;42141;53.240;6.580;2023-04-01T22:40:13;6.47;;;1.70;;
56233;SDS011;42141;53.240;6.580;2023-04-01T22:43:10;6.13;;;1.88;;
56233;SDS011;42141;53.240;6.580;2023-04-01T22:45:43;3.70;;;1.83;;
56233;SDS011;42141;53.240;6.580;2023-04-01T22:48:44;9.52;;;2.25;;
56233;SDS011;42141;53.240;6.580;2023-04-01T22:51:18;6.18;;;3.17;;
56233;SDS011;42141;53.240;6.580;2023-04-01T22:53:52;8.75;;;1.63;;
56233;SDS011;42141;53.240;6.580;2023-04-01T22:56:39;6.82;;;2.35;;
56233;SDS011;42141;53.240;6.580;2023-04-01T22:59:19;3.80;;;1.60;;
56233;SDS011;42141;53.240;6.580;2023-04-01T23:01:54;5.85;;;1.88;;
56233;SDS011;42141;53.240;6.580;2023-04-01T23:04:24;8.35;;;3.08;;
56233;SDS011;42141;53.240;6.580;2023-04-01T23:07:02;9.57;;;2.00;;
56233;SDS011;42141;53.240;6.580;2023-04-01T23:09:38;5.13;;;2.40;;
56233;SDS011;42141;53.240;6.580;2023-04-01T23:12:05;6.38;;;2.30;;
56233;SDS011;42141;53.240;6.580;2023-04-01T23:14:37;7.70;;;1.90;;
56233;SDS011;42141;53.240;6.580;2023-04-01T23:19:55;8.07;;;1.90;;
56233;SDS011;42141;53.240;6.580;2023-04-01T23:22:47;6.18;;;1.63;;
56233;SDS011;42141;53.240;6.580;2023-04-01T23:35:50;5.28;;;2.13;;
56233;SDS011;42141;53.240;6.580;2023-04-01T23:38:18;5.53;;;1.55;;
56233;SDS011;42141;53.240;6.580;2023-04-01T23:40:50;7.70;;;1.88;;
56233;SDS011;42141;53.240;6.580;2023-04-01T23:43:25;8.18;;;1.98;;
56233;SDS011;42141;53.240;6.580;2023-04-01T23:45:54;10.82;;;2.35;;
56233;SDS011;42141;53.240;6.580;2023-04-01T23:48:23;10.13;;;2.47;;
56233;SDS011;42141;53.240;6.580;2023-04-01T23:50:54;9.27;;;1.80;;
56233;SDS011;42141;53.240;6.580;2023-04-01T23:53:26;7.43;;;2.25;;
56233;SDS011;42141;53.240;6.580;2023-04-01T23:55:55;8.13;;;2.47;;
56233;SDS011;42141;53.240;6.580;2023-04-01T23:58:23;4.88;;;1.85;;
